METAR Data
IDs: Format: Raw Decoded Include TAF

Data at: 0557 UTC 19 Aug 2019

KMEZ 190535Z AUTO 00000KT 10SM CLR 23/23 A3000 RMK AO2
KMEZ 190515Z AUTO 00000KT 10SM CLR 24/23 A2999 RMK AO2
KMEZ 190455Z AUTO 00000KT 10SM CLR 23/23 A2999 RMK AO2
KMEZ 190435Z AUTO 00000KT 10SM CLR 24/23 A2999 RMK AO2
KMEZ 190415Z AUTO 00000KT 10SM CLR 24/23 A2999 RMK AO2
KMEZ 190355Z AUTO 00000KT 10SM CLR 24/23 A2999 RMK AO2
KMEZ 190335Z AUTO 00000KT 10SM SCT120 25/25 A2998 RMK AO2
KMEZ 190315Z AUTO 00000KT 10SM SCT120 25/25 A2998 RMK AO2
KMEZ 190255Z AUTO 00000KT 10SM SCT120 25/25 A2997 RMK AO2
KMEZ 190235Z AUTO 00000KT 10SM SCT120 25/25 A2997 RMK AO2
KMEZ 190215Z AUTO 00000KT 10SM CLR 26/24 A2996 RMK AO2
KMEZ 190155Z AUTO 00000KT 10SM CLR 26/24 A2995 RMK AO2
KMEZ 190135Z AUTO 00000KT 10SM CLR 27/23 A2993 RMK AO2
KMEZ 190115Z AUTO 00000KT 10SM CLR 27/23 A2993 RMK AO2
KMEZ 190055Z AUTO 00000KT 10SM CLR 27/22 A2991 RMK AO2
KMEZ 190035Z AUTO 00000KT 10SM CLR 28/22 A2990 RMK AO2
KMEZ 190015Z AUTO 00000KT 10SM CLR 29/21 A2991 RMK AO2
KMEZ 182355Z AUTO 06003KT 10SM CLR 30/21 A2990 RMK AO2
KMEZ 182335Z AUTO 05003KT 10SM CLR 30/21 A2990 RMK AO2
KMEZ 182315Z AUTO 36003KT 10SM CLR 30/21 A2990 RMK AO2
KMEZ 182255Z AUTO 03003KT 10SM CLR 31/20 A2990 RMK AO2
KMEZ 182235Z AUTO 06003KT 10SM CLR 31/21 A2991 RMK AO2
KMEZ 182215Z AUTO 10003KT 10SM CLR 31/21 A2992 RMK AO2
KMEZ 182155Z AUTO 12003KT 10SM CLR 30/21 A2993 RMK AO2
KMEZ 182135Z AUTO 06004KT 10SM SCT025 SCT032 SCT042 28/21 A2993 RMK AO2
KMEZ 182115Z AUTO 13006KT 10SM SCT022 SCT036 BKN050 27/21 A2992 RMK AO2 LTG DSNT NE
KMEZ 182055Z AUTO 11009KT 10SM SCT026 SCT047 BKN060 26/21 A2996 RMK AO2 LTG DSNT NE
KMEZ 182035Z AUTO 36009G19KT 10SM TS SCT044 BKN060 BKN070 28/20 A2996 RMK AO2 LTG DSNT W THRU NE
KMEZ 182015Z AUTO 35017G24KT 314V014 10SM VCTS SCT048 SCT060 33/22 A3001 RMK AO2 LTG DSNT W THRU NE
KMEZ 181955Z AUTO 00000KT 10SM VCTS SCT065 33/22 A2996 RMK AO2 LTG DSNT N AND NW
KMEZ 181935Z AUTO 00000KT 10SM SCT050 35/22 A2996 RMK AO2 LTG DSNT W THRU N
KMEZ 181915Z AUTO 13005KT 10SM SCT048 SCT055 36/22 A2995 RMK AO2 LTG DSNT N AND NW
KMEZ 181855Z AUTO 21004KT 10SM SCT046 BKN055 35/22 A2996 RMK AO2 LTG DSNT N
KMEZ 181835Z AUTO 00000KT 10SM SCT046 SCT055 35/22 A2997 RMK AO2 LTG DSNT NW
KMEZ 181815Z AUTO 22004KT 10SM SCT048 SCT055 SCT065 35/22 A2997 RMK AO2
KMEZ 181755Z AUTO 00000KT 10SM SCT046 SCT050 BKN065 35/22 A2997 RMK AO2
KMEZ 181735Z AUTO 23005KT 10SM SCT047 BKN050 BKN065 35/22 A2997 RMK AO2
KMEZ 181715Z AUTO 00000KT 10SM SCT045 SCT050 SCT065 35/22 A2998 RMK AO2
KMEZ 181655Z AUTO 26005KT 10SM SCT040 SCT050 33/22 A2998 RMK AO2 LTG DSNT NW
KMEZ 181635Z AUTO 21003KT 10SM SCT038 33/22 A2998 RMK AO2
KMEZ 181615Z AUTO 24004KT 10SM CLR 33/23 A2998 RMK AO2
KMEZ 181555Z AUTO 24005KT 10SM SCT028 32/23 A2998 RMK AO2 TSNO
KMEZ 181535Z AUTO 24006KT 10SM SCT025 SCT031 32/23 A2998 RMK AO2
KMEZ 181515Z AUTO 26007KT 10SM SCT023 31/23 A2998 RMK AO2
KMEZ 181455Z AUTO 27007KT 234V294 10SM BKN021 BKN027 30/23 A2997 RMK AO2
KMEZ 181435Z AUTO 23004KT 10SM SCT016 SCT023 29/25 A2997 RMK AO2
KMEZ 181415Z AUTO 25008KT 10SM BKN016 BKN021 29/25 A2997 RMK AO2
KMEZ 181355Z AUTO 25006KT 10SM BKN016 OVC021 28/26 A2996 RMK AO2
KMEZ 181335Z AUTO 25008KT 10SM SCT014 BKN019 27/26 A2996 RMK AO2
KMEZ 181235Z AUTO 00000KT 10SM SCT011 BKN016 27/26 A2993 RMK AO2
KMEZ 181215Z AUTO 00000KT 10SM SCT011 27/26 A2992 RMK AO2
KMEZ 181155Z AUTO 20003KT 10SM SCT013 27/26 A2991 RMK AO2
KMEZ 181135Z AUTO 21003KT 10SM SCT013 27/26 A2992 RMK AO2
KMEZ 181115Z AUTO 20003KT 10SM CLR 27/26 A2992 RMK AO2
KMEZ 181055Z AUTO 21003KT 10SM SCT014 27/26 A2991 RMK AO2
KMEZ 181035Z AUTO 21005KT 10SM CLR 27/26 A2991 RMK AO2
KMEZ 181015Z AUTO 21004KT 10SM CLR 27/26 A2992 RMK AO2
KMEZ 180955Z AUTO 20005KT 10SM CLR 27/26 A2990 RMK AO2
KMEZ 180935Z AUTO 19004KT 10SM CLR 27/25 A2991 RMK AO2
KMEZ 180915Z AUTO 22003KT 10SM CLR 27/26 A2992 RMK AO2
KMEZ 180855Z AUTO 19004KT 10SM CLR 27/25 A2992 RMK AO2
KMEZ 180835Z AUTO 19003KT 10SM CLR 27/25 A2991 RMK AO2
KMEZ 180815Z AUTO 22005KT 10SM CLR 27/24 A2990 RMK AO2
KMEZ 180755Z AUTO 20003KT 10SM CLR 27/24 A2990 RMK AO2
KMEZ 180735Z AUTO 20004KT 10SM CLR 27/23 A2990 RMK AO2
KMEZ 180715Z AUTO 15004KT 10SM CLR 27/23 A2991 RMK AO2
KMEZ 180655Z AUTO 14003KT 10SM CLR 28/23 A2991 RMK AO2
KMEZ 180635Z AUTO 18004KT 10SM CLR 28/22 A2992 RMK AO2
KMEZ 180615Z AUTO 14004KT 10SM CLR 28/22 A2993 RMK AO2
KMEZ 180555Z AUTO 14003KT 10SM CLR 28/22 A2993 RMK AO2
KMEZ 180535Z AUTO 15003KT 10SM CLR 28/23 A2992 RMK AO2
KMEZ 180515Z AUTO 13004KT 10SM CLR 29/23 A2992 RMK AO2
KMEZ 180455Z AUTO 14004KT 10SM CLR 29/22 A2992 RMK AO2
KMEZ 180435Z AUTO 13005KT 10SM CLR 30/22 A2992 RMK AO2 TSNO
KMEZ 180415Z AUTO 13004KT 10SM CLR 30/22 A2993 RMK AO2
KMEZ 180355Z AUTO 14006KT 10SM SCT050 BKN065 31/22 A2992 RMK AO2
KMEZ 180335Z AUTO 12004KT 10SM BKN050 BKN065 30/22 A2992 RMK AO2
KMEZ 180315Z AUTO 00000KT 10SM CLR 28/22 A2992 RMK AO2
KMEZ 180255Z AUTO 00000KT 10SM CLR 28/22 A2991 RMK AO2
KMEZ 180235Z AUTO 00000KT 10SM CLR 28/22 A2990 RMK AO2
KMEZ 180215Z AUTO 00000KT 10SM CLR 28/22 A2989 RMK AO2
KMEZ 180155Z AUTO 00000KT 10SM CLR 29/22 A2988 RMK AO2
KMEZ 180135Z AUTO 00000KT 10SM CLR 30/22 A2988 RMK AO2
KMEZ 180115Z AUTO 00000KT 10SM CLR 31/22 A2987 RMK AO2
KMEZ 180055Z AUTO 00000KT 10SM CLR 31/22 A2987 RMK AO2
KMEZ 180035Z AUTO 00000KT 10SM CLR 32/22 A2987 RMK AO2
KMEZ 180015Z AUTO 00000KT 10SM CLR 33/22 A2987 RMK AO2
KMEZ 172355Z AUTO 00000KT 10SM CLR 33/22 A2987 RMK AO2
KMEZ 172335Z AUTO 12003KT 10SM CLR 34/22 A2987 RMK AO2
KMEZ 172235Z AUTO 13003KT 10SM CLR 36/20 A2988 RMK AO2
KMEZ 172215Z AUTO 13004KT 10SM SCT055 36/20 A2989 RMK AO2
KMEZ 172155Z AUTO 12006KT 10SM SCT055 35/21 A2989 RMK AO2
KMEZ 172135Z AUTO 19004KT 10SM SCT055 36/21 A2989 RMK AO2
KMEZ 172115Z AUTO 00000KT 10SM CLR 36/20 A2989 RMK AO2
KMEZ 172055Z AUTO 13003KT 10SM SCT060 35/21 A2990 RMK AO2
KMEZ 172035Z AUTO 11005KT 10SM SCT060 SCT070 36/21 A2990 RMK AO2
KMEZ 172015Z AUTO 19003KT 10SM SCT060 SCT070 36/21 A2991 RMK AO2
KMEZ 171955Z AUTO 21004KT 10SM CLR 36/18 A2991 RMK AO2
KMEZ 171935Z AUTO 14006KT 10SM SCT050 35/21 A2992 RMK AO2
KMEZ 171915Z AUTO 12003KT 10SM SCT050 35/21 A2992 RMK AO2
KMEZ 171855Z AUTO 10003KT 10SM SCT047 35/21 A2993 RMK AO2
KMEZ 171835Z AUTO 13005KT 10SM SCT045 35/22 A2993 RMK AO2 TSNO
KMEZ 171815Z AUTO 00000KT 10SM CLR 35/22 A2994 RMK AO2